sensor_id;sensor_type;location;lat;lon;timestamp;P1;durP1;ratioP1;P2;durP2;ratioP2
13590;SDS011;6866;50.778;7.206;2022-07-29T00:00:57;7.85;;;2.38;;
13590;SDS011;6866;50.778;7.206;2022-07-29T00:03:22;8.45;;;2.40;;
13590;SDS011;6866;50.778;7.206;2022-07-29T00:05:48;5.03;;;2.00;;
13590;SDS011;6866;50.778;7.206;2022-07-29T00:08:13;6.85;;;2.00;;
13590;SDS011;6866;50.778;7.206;2022-07-29T00:10:40;3.47;;;1.88;;
13590;SDS011;6866;50.778;7.206;2022-07-29T00:13:06;10.52;;;1.77;;
13590;SDS011;6866;50.778;7.206;2022-07-29T00:15:32;5.70;;;2.00;;
13590;SDS011;6866;50.778;7.206;2022-07-29T00:17:58;5.57;;;2.15;;
13590;SDS011;6866;50.778;7.206;2022-07-29T00:20:23;6.15;;;2.20;;
13590;SDS011;6866;50.778;7.206;2022-07-29T00:22:49;7.03;;;2.20;;
13590;SDS011;6866;50.778;7.206;2022-07-29T00:25:14;7.82;;;1.95;;
13590;SDS011;6866;50.778;7.206;2022-07-29T00:27:40;7.20;;;2.00;;
13590;SDS011;6866;50.778;7.206;2022-07-29T00:30:06;7.72;;;2.03;;
13590;SDS011;6866;50.778;7.206;2022-07-29T00:32:32;4.95;;;2.10;;
13590;SDS011;6866;50.778;7.206;2022-07-29T00:34:58;5.47;;;1.90;;
13590;SDS011;6866;50.778;7.206;2022-07-29T00:37:42;4.65;;;2.10;;
13590;SDS011;6866;50.778;7.206;2022-07-29T00:40:08;6.90;;;2.03;;
13590;SDS011;6866;50.778;7.206;2022-07-29T00:42:41;5.75;;;2.72;;
13590;SDS011;6866;50.778;7.206;2022-07-29T00:45:11;6.07;;;2.10;;
13590;SDS011;6866;50.778;7.206;2022-07-29T00:47:37;6.03;;;2.10;;
13590;SDS011;6866;50.778;7.206;2022-07-29T00:50:03;9.85;;;2.30;;
13590;SDS011;6866;50.778;7.206;2022-07-29T00:52:29;9.38;;;2.28;;
13590;SDS011;6866;50.778;7.206;2022-07-29T00:54:55;7.40;;;2.30;;
13590;SDS011;6866;50.778;7.206;2022-07-29T00:57:22;7.22;;;2.33;;
13590;SDS011;6866;50.778;7.206;2022-07-29T00:59:47;6.38;;;2.17;;
13590;SDS011;6866;50.778;7.206;2022-07-29T01:04:48;5.40;;;2.20;;
13590;SDS011;6866;50.778;7.206;2022-07-29T01:07:14;4.55;;;2.10;;
13590;SDS011;6866;50.778;7.206;2022-07-29T01:09:41;4.30;;;1.95;;
13590;SDS011;6866;50.778;7.206;2022-07-29T01:12:09;6.32;;;2.17;;
13590;SDS011;6866;50.778;7.206;2022-07-29T01:14:35;6.05;;;1.85;;
13590;SDS011;6866;50.778;7.206;2022-07-29T01:19:39;4.70;;;1.77;;
13590;SDS011;6866;50.778;7.206;2022-07-29T01:29:05;6.55;;;2.13;;
13590;SDS011;6866;50.778;7.206;2022-07-29T01:31:30;4.18;;;1.98;;
13590;SDS011;6866;50.778;7.206;2022-07-29T01:34:03;5.53;;;2.25;;
13590;SDS011;6866;50.778;7.206;2022-07-29T01:36:32;5.63;;;2.00;;
13590;SDS011;6866;50.778;7.206;2022-07-29T01:39:02;7.93;;;2.13;;
13590;SDS011;6866;50.778;7.206;2022-07-29T01:41:35;4.97;;;1.90;;
13590;SDS011;6866;50.778;7.206;2022-07-29T01:44:10;7.43;;;2.20;;
13590;SDS011;6866;50.778;7.206;2022-07-29T01:46:39;5.05;;;1.95;;
13590;SDS011;6866;50.778;7.206;2022-07-29T01:49:13;3.90;;;2.07;;
13590;SDS011;6866;50.778;7.206;2022-07-29T01:56:41;5.82;;;1.95;;
13590;SDS011;6866;50.778;7.206;2022-07-29T01:59:08;5.28;;;2.00;;
13590;SDS011;6866;50.778;7.206;2022-07-29T02:01:35;8.25;;;2.15;;
13590;SDS011;6866;50.778;7.206;2022-07-29T02:04:02;8.18;;;1.85;;
13590;SDS011;6866;50.778;7.206;2022-07-29T02:06:30;6.22;;;2.17;;
13590;SDS011;6866;50.778;7.206;2022-07-29T02:08:58;5.97;;;1.95;;
13590;SDS011;6866;50.778;7.206;2022-07-29T02:11:25;5.72;;;2.10;;
13590;SDS011;6866;50.778;7.206;2022-07-29T02:13:52;5.60;;;1.95;;
13590;SDS011;6866;50.778;7.206;2022-07-29T02:16:20;6.18;;;2.50;;
13590;SDS011;6866;50.778;7.206;2022-07-29T02:18:47;4.65;;;2.10;;
13590;SDS011;6866;50.778;7.206;2022-07-29T02:21:16;6.15;;;2.10;;
13590;SDS011;6866;50.778;7.206;2022-07-29T02:23:47;3.72;;;1.90;;
13590;SDS011;6866;50.778;7.206;2022-07-29T02:26:13;8.90;;;2.63;;
13590;SDS011;6866;50.778;7.206;2022-07-29T02:28:41;7.68;;;2.35;;
13590;SDS011;6866;50.778;7.206;2022-07-29T02:31:07;7.03;;;2.20;;
13590;SDS011;6866;50.778;7.206;2022-07-29T02:33:34;6.55;;;2.70;;
13590;SDS011;6866;50.778;7.206;2022-07-29T02:36:01;8.07;;;2.30;;
13590;SDS011;6866;50.778;7.206;2022-07-29T02:38:27;5.05;;;2.20;;
13590;SDS011;6866;50.778;7.206;2022-07-29T02:41:14;7.25;;;2.40;;
13590;SDS011;6866;50.778;7.206;2022-07-29T02:43:46;9.27;;;2.55;;
13590;SDS011;6866;50.778;7.206;2022-07-29T02:46:16;5.88;;;2.40;;
13590;SDS011;6866;50.778;7.206;2022-07-29T02:51:32;6.10;;;2.47;;
13590;SDS011;6866;50.778;7.206;2022-07-29T02:54:06;4.63;;;2.55;;
13590;SDS011;6866;50.778;7.206;2022-07-29T02:56:33;7.80;;;2.30;;
13590;SDS011;6866;50.778;7.206;2022-07-29T02:59:03;5.97;;;2.50;;
13590;SDS011;6866;50.778;7.206;2022-07-29T03:01:32;5.55;;;2.65;;
13590;SDS011;6866;50.778;7.206;2022-07-29T03:04:00;4.40;;;2.33;;
13590;SDS011;6866;50.778;7.206;2022-07-29T03:06:29;9.18;;;2.30;;
13590;SDS011;6866;50.778;7.206;2022-07-29T03:08:57;4.75;;;2.40;;
13590;SDS011;6866;50.778;7.206;2022-07-29T03:11:24;6.43;;;2.30;;
13590;SDS011;6866;50.778;7.206;2022-07-29T03:13:51;5.13;;;2.17;;
13590;SDS011;6866;50.778;7.206;2022-07-29T03:16:18;8.23;;;2.22;;
13590;SDS011;6866;50.778;7.206;2022-07-29T03:18:44;8.13;;;2.40;;
13590;SDS011;6866;50.778;7.206;2022-07-29T03:21:10;7.38;;;2.45;;
13590;SDS011;6866;50.778;7.206;2022-07-29T03:23:36;4.50;;;2.30;;
13590;SDS011;6866;50.778;7.206;2022-07-29T03:26:01;3.85;;;2.10;;
13590;SDS011;6866;50.778;7.206;2022-07-29T03:28:27;7.72;;;2.50;;
13590;SDS011;6866;50.778;7.206;2022-07-29T03:30:53;7.60;;;2.70;;
13590;SDS011;6866;50.778;7.206;2022-07-29T03:33:19;6.25;;;2.88;;
13590;SDS011;6866;50.778;7.206;2022-07-29T03:35:44;8.77;;;2.38;;
13590;SDS011;6866;50.778;7.206;2022-07-29T03:38:10;4.63;;;2.20;;
13590;SDS011;6866;50.778;7.206;2022-07-29T03:40:56;6.82;;;2.10;;
13590;SDS011;6866;50.778;7.206;2022-07-29T03:43:26;6.50;;;2.42;;
13590;SDS011;6866;50.778;7.206;2022-07-29T03:45:55;5.70;;;2.30;;
13590;SDS011;6866;50.778;7.206;2022-07-29T03:48:22;4.28;;;2.00;;
13590;SDS011;6866;50.778;7.206;2022-07-29T03:50:50;6.55;;;2.90;;
13590;SDS011;6866;50.778;7.206;2022-07-29T03:53:16;6.82;;;2.25;;
13590;SDS011;6866;50.778;7.206;2022-07-29T03:55:45;6.70;;;2.42;;
13590;SDS011;6866;50.778;7.206;2022-07-29T03:58:13;5.35;;;2.40;;
13590;SDS011;6866;50.778;7.206;2022-07-29T04:00:42;10.00;;;3.70;;
13590;SDS011;6866;50.778;7.206;2022-07-29T04:03:08;7.32;;;2.60;;
13590;SDS011;6866;50.778;7.206;2022-07-29T04:05:35;7.43;;;2.55;;
13590;SDS011;6866;50.778;7.206;2022-07-29T04:08:00;7.45;;;2.58;;
13590;SDS011;6866;50.778;7.206;2022-07-29T04:10:26;5.82;;;2.60;;
13590;SDS011;6866;50.778;7.206;2022-07-29T04:12:51;6.85;;;2.20;;
13590;SDS011;6866;50.778;7.206;2022-07-29T04:15:17;7.28;;;2.38;;
13590;SDS011;6866;50.778;7.206;2022-07-29T04:17:43;7.13;;;2.83;;
13590;SDS011;6866;50.778;7.206;2022-07-29T04:20:09;7.30;;;2.38;;
13590;SDS011;6866;50.778;7.206;2022-07-29T04:22:38;6.38;;;2.45;;
13590;SDS011;6866;50.778;7.206;2022-07-29T04:25:04;7.85;;;2.20;;
13590;SDS011;6866;50.778;7.206;2022-07-29T04:27:29;5.70;;;2.35;;
13590;SDS011;6866;50.778;7.206;2022-07-29T04:29:55;6.32;;;2.67;;
13590;SDS011;6866;50.778;7.206;2022-07-29T04:32:21;7.55;;;2.53;;
13590;SDS011;6866;50.778;7.206;2022-07-29T04:34:46;7.30;;;2.75;;
13590;SDS011;6866;50.778;7.206;2022-07-29T04:37:12;6.07;;;2.50;;
13590;SDS011;6866;50.778;7.206;2022-07-29T04:39:37;8.70;;;2.70;;
13590;SDS011;6866;50.778;7.206;2022-07-29T04:42:03;4.55;;;2.50;;
13590;SDS011;6866;50.778;7.206;2022-07-29T04:44:29;5.75;;;2.17;;
13590;SDS011;6866;50.778;7.206;2022-07-29T04:46:54;5.55;;;2.38;;
13590;SDS011;6866;50.778;7.206;2022-07-29T04:49:20;4.38;;;2.20;;
13590;SDS011;6866;50.778;7.206;2022-07-29T04:51:46;8.27;;;2.35;;
13590;SDS011;6866;50.778;7.206;2022-07-29T04:54:11;10.38;;;2.53;;
13590;SDS011;6866;50.778;7.206;2022-07-29T04:56:37;7.65;;;2.70;;
13590;SDS011;6866;50.778;7.206;2022-07-29T04:59:02;4.90;;;2.60;;
13590;SDS011;6866;50.778;7.206;2022-07-29T05:01:28;8.75;;;2.75;;
13590;SDS011;6866;50.778;7.206;2022-07-29T05:03:54;7.38;;;2.35;;
13590;SDS011;6866;50.778;7.206;2022-07-29T05:06:19;6.93;;;2.75;;
13590;SDS011;6866;50.778;7.206;2022-07-29T05:08:45;9.95;;;2.90;;
13590;SDS011;6866;50.778;7.206;2022-07-29T05:11:10;7.70;;;2.50;;
13590;SDS011;6866;50.778;7.206;2022-07-29T05:13:36;6.20;;;2.60;;
13590;SDS011;6866;50.778;7.206;2022-07-29T05:16:02;6.63;;;2.80;;
13590;SDS011;6866;50.778;7.206;2022-07-29T05:18:28;6.00;;;2.67;;
13590;SDS011;6866;50.778;7.206;2022-07-29T05:20:53;7.68;;;2.67;;
13590;SDS011;6866;50.778;7.206;2022-07-29T05:23:19;6.03;;;2.42;;
13590;SDS011;6866;50.778;7.206;2022-07-29T05:25:44;5.93;;;2.50;;
13590;SDS011;6866;50.778;7.206;2022-07-29T05:28:11;5.55;;;2.45;;
13590;SDS011;6866;50.778;7.206;2022-07-29T05:30:36;6.88;;;2.60;;
13590;SDS011;6866;50.778;7.206;2022-07-29T05:33:02;7.03;;;2.50;;
13590;SDS011;6866;50.778;7.206;2022-07-29T05:35:27;8.13;;;2.58;;
13590;SDS011;6866;50.778;7.206;2022-07-29T05:37:53;7.72;;;2.70;;
13590;SDS011;6866;50.778;7.206;2022-07-29T05:40:19;8.07;;;2.30;;
13590;SDS011;6866;50.778;7.206;2022-07-29T05:42:45;6.53;;;2.15;;
13590;SDS011;6866;50.778;7.206;2022-07-29T05:45:10;9.07;;;2.70;;
13590;SDS011;6866;50.778;7.206;2022-07-29T05:47:36;7.80;;;2.00;;
13590;SDS011;6866;50.778;7.206;2022-07-29T05:50:02;7.82;;;2.10;;
13590;SDS011;6866;50.778;7.206;2022-07-29T05:52:28;5.70;;;2.30;;
13590;SDS011;6866;50.778;7.206;2022-07-29T05:54:54;9.80;;;2.45;;
13590;SDS011;6866;50.778;7.206;2022-07-29T05:57:21;8.82;;;2.30;;
13590;SDS011;6866;50.778;7.206;2022-07-29T05:59:48;6.97;;;2.00;;
13590;SDS011;6866;50.778;7.206;2022-07-29T06:02:14;7.22;;;2.15;;
13590;SDS011;6866;50.778;7.206;2022-07-29T06:04:41;6.40;;;2.15;;
13590;SDS011;6866;50.778;7.206;2022-07-29T06:07:07;4.57;;;1.90;;
13590;SDS011;6866;50.778;7.206;2022-07-29T06:09:32;7.27;;;2.30;;
13590;SDS011;6866;50.778;7.206;2022-07-29T06:11:59;5.85;;;2.25;;
13590;SDS011;6866;50.778;7.206;2022-07-29T06:14:25;10.00;;;2.45;;
13590;SDS011;6866;50.778;7.206;2022-07-29T06:19:19;9.45;;;2.42;;
13590;SDS011;6866;50.778;7.206;2022-07-29T06:21:45;6.50;;;2.25;;
13590;SDS011;6866;50.778;7.206;2022-07-29T06:31:29;7.22;;;2.13;;
13590;SDS011;6866;50.778;7.206;2022-07-29T06:33:54;8.60;;;2.03;;
13590;SDS011;6866;50.778;7.206;2022-07-29T06:36:20;7.78;;;2.33;;
13590;SDS011;6866;50.778;7.206;2022-07-29T06:38:45;9.15;;;2.25;;
13590;SDS011;6866;50.778;7.206;2022-07-29T06:41:11;5.20;;;2.10;;
13590;SDS011;6866;50.778;7.206;2022-07-29T06:43:40;14.00;;;2.38;;
13590;SDS011;6866;50.778;7.206;2022-07-29T06:46:11;7.13;;;2.15;;
13590;SDS011;6866;50.778;7.206;2022-07-29T06:48:42;12.88;;;2.50;;
13590;SDS011;6866;50.778;7.206;2022-07-29T06:51:08;8.75;;;2.38;;
13590;SDS011;6866;50.778;7.206;2022-07-29T06:53:35;13.45;;;2.33;;
13590;SDS011;6866;50.778;7.206;2022-07-29T06:56:01;12.15;;;2.33;;
13590;SDS011;6866;50.778;7.206;2022-07-29T06:58:29;7.60;;;2.38;;
13590;SDS011;6866;50.778;7.206;2022-07-29T07:00:56;9.05;;;2.25;;
13590;SDS011;6866;50.778;7.206;2022-07-29T07:03:26;8.18;;;2.17;;
13590;SDS011;6866;50.778;7.206;2022-07-29T07:05:52;11.38;;;2.35;;
13590;SDS011;6866;50.778;7.206;2022-07-29T07:08:18;9.63;;;2.13;;
13590;SDS011;6866;50.778;7.206;2022-07-29T07:10:44;15.32;;;2.40;;
13590;SDS011;6866;50.778;7.206;2022-07-29T07:13:10;10.25;;;2.60;;
13590;SDS011;6866;50.778;7.206;2022-07-29T07:15:36;8.38;;;2.58;;
13590;SDS011;6866;50.778;7.206;2022-07-29T07:18:02;10.50;;;2.35;;
13590;SDS011;6866;50.778;7.206;2022-07-29T07:20:28;7.90;;;2.10;;
13590;SDS011;6866;50.778;7.206;2022-07-29T07:22:53;7.28;;;2.25;;
13590;SDS011;6866;50.778;7.206;2022-07-29T07:25:19;8.23;;;2.13;;
13590;SDS011;6866;50.778;7.206;2022-07-29T07:27:45;7.87;;;2.40;;
13590;SDS011;6866;50.778;7.206;2022-07-29T07:37:28;8.98;;;2.25;;
13590;SDS011;6866;50.778;7.206;2022-07-29T07:39:54;10.85;;;2.30;;
13590;SDS011;6866;50.778;7.206;2022-07-29T07:42:19;10.30;;;2.50;;
13590;SDS011;6866;50.778;7.206;2022-07-29T07:44:45;7.20;;;2.17;;
13590;SDS011;6866;50.778;7.206;2022-07-29T07:47:13;6.22;;;1.98;;
13590;SDS011;6866;50.778;7.206;2022-07-29T07:52:04;9.30;;;2.13;;
13590;SDS011;6866;50.778;7.206;2022-07-29T07:54:30;7.63;;;1.73;;
13590;SDS011;6866;50.778;7.206;2022-07-29T07:56:56;9.20;;;2.47;;
13590;SDS011;6866;50.778;7.206;2022-07-29T07:59:21;7.90;;;2.22;;
13590;SDS011;6866;50.778;7.206;2022-07-29T08:01:47;8.20;;;2.08;;
13590;SDS011;6866;50.778;7.206;2022-07-29T08:04:13;6.40;;;1.88;;
13590;SDS011;6866;50.778;7.206;2022-07-29T08:06:39;4.93;;;1.90;;
13590;SDS011;6866;50.778;7.206;2022-07-29T08:09:04;7.88;;;2.00;;
13590;SDS011;6866;50.778;7.206;2022-07-29T08:11:30;7.00;;;2.10;;
13590;SDS011;6866;50.778;7.206;2022-07-29T08:13:56;6.38;;;2.35;;
13590;SDS011;6866;50.778;7.206;2022-07-29T08:16:22;10.68;;;2.00;;
13590;SDS011;6866;50.778;7.206;2022-07-29T08:18:49;5.45;;;2.13;;
13590;SDS011;6866;50.778;7.206;2022-07-29T08:21:15;9.52;;;2.65;;
13590;SDS011;6866;50.778;7.206;2022-07-29T08:23:42;8.75;;;1.92;;
13590;SDS011;6866;50.778;7.206;2022-07-29T08:26:14;7.78;;;1.80;;
13590;SDS011;6866;50.778;7.206;2022-07-29T08:28:40;5.72;;;2.00;;
13590;SDS011;6866;50.778;7.206;2022-07-29T08:31:10;6.55;;;2.00;;
13590;SDS011;6866;50.778;7.206;2022-07-29T08:33:36;6.63;;;1.98;;
13590;SDS011;6866;50.778;7.206;2022-07-29T08:36:02;10.70;;;2.00;;
13590;SDS011;6866;50.778;7.206;2022-07-29T08:40:53;9.27;;;2.25;;
13590;SDS011;6866;50.778;7.206;2022-07-29T08:43:19;9.35;;;2.20;;
13590;SDS011;6866;50.778;7.206;2022-07-29T08:45:46;7.82;;;2.15;;
13590;SDS011;6866;50.778;7.206;2022-07-29T08:48:13;7.75;;;1.80;;
13590;SDS011;6866;50.778;7.206;2022-07-29T08:50:41;7.18;;;1.98;;
13590;SDS011;6866;50.778;7.206;2022-07-29T08:53:10;8.75;;;2.10;;
13590;SDS011;6866;50.778;7.206;2022-07-29T08:55:39;7.85;;;2.10;;
13590;SDS011;6866;50.778;7.206;2022-07-29T08:58:08;7.68;;;1.83;;
13590;SDS011;6866;50.778;7.206;2022-07-29T09:00:35;9.40;;;1.90;;
13590;SDS011;6866;50.778;7.206;2022-07-29T09:03:02;6.32;;;1.90;;
13590;SDS011;6866;50.778;7.206;2022-07-29T09:10:22;8.02;;;2.30;;
13590;SDS011;6866;50.778;7.206;2022-07-29T09:12:48;5.35;;;2.00;;
13590;SDS011;6866;50.778;7.206;2022-07-29T09:15:13;6.68;;;2.08;;
13590;SDS011;6866;50.778;7.206;2022-07-29T09:17:49;6.23;;;1.90;;
13590;SDS011;6866;50.778;7.206;2022-07-29T09:20:19;5.90;;;1.90;;
13590;SDS011;6866;50.778;7.206;2022-07-29T09:22:47;6.20;;;1.88;;
13590;SDS011;6866;50.778;7.206;2022-07-29T09:25:14;4.63;;;1.80;;
13590;SDS011;6866;50.778;7.206;2022-07-29T09:28:04;5.23;;;2.00;;
13590;SDS011;6866;50.778;7.206;2022-07-29T09:57:35;5.15;;;1.90;;
13590;SDS011;6866;50.778;7.206;2022-07-29T10:22:02;9.20;;;3.13;;
13590;SDS011;6866;50.778;7.206;2022-07-29T10:24:30;8.55;;;2.53;;
13590;SDS011;6866;50.778;7.206;2022-07-29T10:26:57;9.73;;;2.67;;
13590;SDS011;6866;50.778;7.206;2022-07-29T10:29:24;9.75;;;2.38;;
13590;SDS011;6866;50.778;7.206;2022-07-29T10:34:23;9.85;;;2.33;;
13590;SDS011;6866;50.778;7.206;2022-07-29T10:40:00;8.88;;;2.10;;
13590;SDS011;6866;50.778;7.206;2022-07-29T10:43:28;8.63;;;2.45;;
13590;SDS011;6866;50.778;7.206;2022-07-29T10:55:50;8.00;;;2.22;;
13590;SDS011;6866;50.778;7.206;2022-07-29T10:58:18;6.22;;;2.42;;
13590;SDS011;6866;50.778;7.206;2022-07-29T11:00:46;9.23;;;2.70;;
13590;SDS011;6866;50.778;7.206;2022-07-29T11:06:11;9.68;;;2.75;;
13590;SDS011;6866;50.778;7.206;2022-07-29T11:08:37;9.27;;;2.65;;
13590;SDS011;6866;50.778;7.206;2022-07-29T11:16:12;6.63;;;2.43;;
13590;SDS011;6866;50.778;7.206;2022-07-29T11:21:40;7.22;;;2.30;;
13590;SDS011;6866;50.778;7.206;2022-07-29T11:24:14;6.63;;;2.58;;
13590;SDS011;6866;50.778;7.206;2022-07-29T11:26:41;8.73;;;2.60;;
13590;SDS011;6866;50.778;7.206;2022-07-29T11:31:49;13.88;;;2.50;;
13590;SDS011;6866;50.778;7.206;2022-07-29T11:39:39;10.32;;;2.70;;
13590;SDS011;6866;50.778;7.206;2022-07-29T11:47:22;7.77;;;2.57;;
13590;SDS011;6866;50.778;7.206;2022-07-29T11:49:49;11.48;;;2.80;;
13590;SDS011;6866;50.778;7.206;2022-07-29T11:52:19;7.95;;;2.40;;
13590;SDS011;6866;50.778;7.206;2022-07-29T11:54:47;8.68;;;2.58;;
13590;SDS011;6866;50.778;7.206;2022-07-29T11:59:45;8.45;;;2.13;;
13590;SDS011;6866;50.778;7.206;2022-07-29T12:02:12;10.13;;;2.50;;
13590;SDS011;6866;50.778;7.206;2022-07-29T12:07:17;10.18;;;2.40;;
13590;SDS011;6866;50.778;7.206;2022-07-29T12:09:50;7.50;;;2.30;;
13590;SDS011;6866;50.778;7.206;2022-07-29T12:12:17;8.10;;;2.50;;
13590;SDS011;6866;50.778;7.206;2022-07-29T12:14:43;9.50;;;2.50;;
13590;SDS011;6866;50.778;7.206;2022-07-29T12:24:53;7.80;;;2.40;;
13590;SDS011;6866;50.778;7.206;2022-07-29T12:27:19;8.32;;;2.47;;
13590;SDS011;6866;50.778;7.206;2022-07-29T12:29:55;8.10;;;2.30;;
13590;SDS011;6866;50.778;7.206;2022-07-29T12:32:21;6.55;;;2.25;;
13590;SDS011;6866;50.778;7.206;2022-07-29T12:34:48;6.07;;;2.33;;
13590;SDS011;6866;50.778;7.206;2022-07-29T12:37:14;6.73;;;2.20;;
13590;SDS011;6866;50.778;7.206;2022-07-29T12:39:40;6.32;;;2.20;;
13590;SDS011;6866;50.778;7.206;2022-07-29T12:42:15;6.30;;;2.20;;
13590;SDS011;6866;50.778;7.206;2022-07-29T12:44:49;7.93;;;2.55;;
13590;SDS011;6866;50.778;7.206;2022-07-29T12:52:28;11.27;;;2.50;;
13590;SDS011;6866;50.778;7.206;2022-07-29T12:54:58;6.07;;;2.30;;
13590;SDS011;6866;50.778;7.206;2022-07-29T12:57:24;6.45;;;2.10;;
13590;SDS011;6866;50.778;7.206;2022-07-29T13:02:26;8.07;;;2.53;;
13590;SDS011;6866;50.778;7.206;2022-07-29T13:04:58;7.03;;;2.37;;
13590;SDS011;6866;50.778;7.206;2022-07-29T13:07:25;8.90;;;2.40;;
13590;SDS011;6866;50.778;7.206;2022-07-29T13:09:53;5.90;;;2.28;;
13590;SDS011;6866;50.778;7.206;2022-07-29T13:12:20;8.10;;;2.58;;
13590;SDS011;6866;50.778;7.206;2022-07-29T13:14:49;6.93;;;2.40;;
13590;SDS011;6866;50.778;7.206;2022-07-29T13:17:19;8.03;;;2.13;;
13590;SDS011;6866;50.778;7.206;2022-07-29T13:19:49;5.60;;;2.37;;
13590;SDS011;6866;50.778;7.206;2022-07-29T13:22:29;8.77;;;2.30;;
13590;SDS011;6866;50.778;7.206;2022-07-29T13:27:22;9.40;;;2.30;;
13590;SDS011;6866;50.778;7.206;2022-07-29T13:29:53;8.13;;;2.28;;
13590;SDS011;6866;50.778;7.206;2022-07-29T13:32:21;8.27;;;2.55;;
13590;SDS011;6866;50.778;7.206;2022-07-29T13:34:47;6.43;;;2.30;;
13590;SDS011;6866;50.778;7.206;2022-07-29T13:37:13;7.07;;;2.60;;
13590;SDS011;6866;50.778;7.206;2022-07-29T13:39:39;6.97;;;2.57;;
13590;SDS011;6866;50.778;7.206;2022-07-29T13:42:05;9.02;;;2.53;;
13590;SDS011;6866;50.778;7.206;2022-07-29T13:44:31;10.13;;;2.80;;
13590;SDS011;6866;50.778;7.206;2022-07-29T13:49:23;7.22;;;2.85;;
13590;SDS011;6866;50.778;7.206;2022-07-29T13:51:49;7.57;;;2.50;;
13590;SDS011;6866;50.778;7.206;2022-07-29T14:08:49;8.50;;;2.10;;
13590;SDS011;6866;50.778;7.206;2022-07-29T14:11:15;6.18;;;2.25;;
13590;SDS011;6866;50.778;7.206;2022-07-29T14:13:40;5.50;;;2.30;;
13590;SDS011;6866;50.778;7.206;2022-07-29T14:16:06;6.53;;;2.30;;
13590;SDS011;6866;50.778;7.206;2022-07-29T14:18:32;8.80;;;2.27;;
13590;SDS011;6866;50.778;7.206;2022-07-29T14:20:58;5.50;;;2.20;;
13590;SDS011;6866;50.778;7.206;2022-07-29T14:23:24;6.15;;;2.20;;
13590;SDS011;6866;50.778;7.206;2022-07-29T14:25:49;5.30;;;2.10;;
13590;SDS011;6866;50.778;7.206;2022-07-29T14:28:15;6.83;;;2.00;;
13590;SDS011;6866;50.778;7.206;2022-07-29T14:30:40;6.80;;;2.30;;
13590;SDS011;6866;50.778;7.206;2022-07-29T14:33:06;7.77;;;2.10;;
13590;SDS011;6866;50.778;7.206;2022-07-29T14:35:31;7.73;;;2.30;;
13590;SDS011;6866;50.778;7.206;2022-07-29T14:37:57;8.10;;;2.20;;
13590;SDS011;6866;50.778;7.206;2022-07-29T14:40:23;5.82;;;2.40;;
13590;SDS011;6866;50.778;7.206;2022-07-29T14:42:48;8.03;;;2.37;;
13590;SDS011;6866;50.778;7.206;2022-07-29T14:45:14;7.33;;;2.33;;
13590;SDS011;6866;50.778;7.206;2022-07-29T15:46:00;9.95;;;3.00;;
13590;SDS011;6866;50.778;7.206;2022-07-29T15:48:44;10.57;;;3.15;;
13590;SDS011;6866;50.778;7.206;2022-07-29T15:51:10;9.23;;;2.90;;
13590;SDS011;6866;50.778;7.206;2022-07-29T15:53:35;12.20;;;3.53;;
13590;SDS011;6866;50.778;7.206;2022-07-29T16:08:09;8.52;;;2.70;;
13590;SDS011;6866;50.778;7.206;2022-07-29T16:10:34;7.97;;;3.10;;
13590;SDS011;6866;50.778;7.206;2022-07-29T16:13:00;8.73;;;2.85;;
13590;SDS011;6866;50.778;7.206;2022-07-29T16:15:25;6.28;;;3.00;;
13590;SDS011;6866;50.778;7.206;2022-07-29T16:17:51;9.32;;;2.92;;
13590;SDS011;6866;50.778;7.206;2022-07-29T16:20:16;6.68;;;3.00;;
13590;SDS011;6866;50.778;7.206;2022-07-29T16:22:42;9.88;;;2.60;;
13590;SDS011;6866;50.778;7.206;2022-07-29T16:25:08;9.75;;;3.33;;
13590;SDS011;6866;50.778;7.206;2022-07-29T16:27:34;7.80;;;2.60;;
13590;SDS011;6866;50.778;7.206;2022-07-29T16:32:25;6.33;;;2.70;;
13590;SDS011;6866;50.778;7.206;2022-07-29T16:34:50;8.73;;;2.45;;
13590;SDS011;6866;50.778;7.206;2022-07-29T16:37:16;6.88;;;2.40;;
13590;SDS011;6866;50.778;7.206;2022-07-29T16:39:42;5.95;;;2.25;;
13590;SDS011;6866;50.778;7.206;2022-07-29T16:42:08;7.40;;;2.35;;
13590;SDS011;6866;50.778;7.206;2022-07-29T16:44:33;7.65;;;2.30;;
13590;SDS011;6866;50.778;7.206;2022-07-29T16:46:59;7.03;;;2.60;;
13590;SDS011;6866;50.778;7.206;2022-07-29T16:49:25;7.97;;;2.30;;
13590;SDS011;6866;50.778;7.206;2022-07-29T16:51:51;8.82;;;2.38;;
13590;SDS011;6866;50.778;7.206;2022-07-29T16:54:17;7.63;;;2.42;;
13590;SDS011;6866;50.778;7.206;2022-07-29T16:56:43;5.25;;;2.40;;
13590;SDS011;6866;50.778;7.206;2022-07-29T16:59:09;5.53;;;2.15;;
13590;SDS011;6866;50.778;7.206;2022-07-29T17:01:34;7.50;;;2.33;;
13590;SDS011;6866;50.778;7.206;2022-07-29T17:04:00;8.73;;;2.63;;
13590;SDS011;6866;50.778;7.206;2022-07-29T17:21:09;8.27;;;2.25;;
13590;SDS011;6866;50.778;7.206;2022-07-29T17:23:34;6.65;;;2.33;;
13590;SDS011;6866;50.778;7.206;2022-07-29T17:26:00;8.50;;;2.13;;
13590;SDS011;6866;50.778;7.206;2022-07-29T17:28:25;7.70;;;2.13;;
13590;SDS011;6866;50.778;7.206;2022-07-29T17:30:51;6.05;;;2.72;;
13590;SDS011;6866;50.778;7.206;2022-07-29T17:33:17;8.63;;;2.50;;
13590;SDS011;6866;50.778;7.206;2022-07-29T17:35:42;9.05;;;2.65;;
13590;SDS011;6866;50.778;7.206;2022-07-29T17:38:26;8.93;;;2.70;;
13590;SDS011;6866;50.778;7.206;2022-07-29T17:40:52;6.35;;;2.75;;
13590;SDS011;6866;50.778;7.206;2022-07-29T17:43:17;7.57;;;2.90;;
13590;SDS011;6866;50.778;7.206;2022-07-29T17:45:43;9.67;;;3.10;;
13590;SDS011;6866;50.778;7.206;2022-07-29T17:48:08;8.37;;;3.23;;
13590;SDS011;6866;50.778;7.206;2022-07-29T17:50:34;7.70;;;3.25;;
13590;SDS011;6866;50.778;7.206;2022-07-29T17:53:00;8.88;;;3.60;;
13590;SDS011;6866;50.778;7.206;2022-07-29T17:55:26;9.48;;;4.18;;
13590;SDS011;6866;50.778;7.206;2022-07-29T17:57:51;9.97;;;3.70;;
13590;SDS011;6866;50.778;7.206;2022-07-29T18:00:17;10.27;;;4.07;;
13590;SDS011;6866;50.778;7.206;2022-07-29T18:02:43;9.85;;;4.55;;
13590;SDS011;6866;50.778;7.206;2022-07-29T18:05:08;7.17;;;3.27;;
13590;SDS011;6866;50.778;7.206;2022-07-29T18:07:34;7.80;;;2.83;;
13590;SDS011;6866;50.778;7.206;2022-07-29T18:10:00;6.05;;;2.75;;
13590;SDS011;6866;50.778;7.206;2022-07-29T18:12:25;6.83;;;2.70;;
13590;SDS011;6866;50.778;7.206;2022-07-29T18:14:51;9.37;;;2.80;;
13590;SDS011;6866;50.778;7.206;2022-07-29T18:17:16;7.25;;;2.58;;
13590;SDS011;6866;50.778;7.206;2022-07-29T18:19:42;7.87;;;2.57;;
13590;SDS011;6866;50.778;7.206;2022-07-29T18:22:07;8.43;;;2.60;;
13590;SDS011;6866;50.778;7.206;2022-07-29T18:24:35;8.15;;;2.47;;
13590;SDS011;6866;50.778;7.206;2022-07-29T18:27:01;8.80;;;2.60;;
13590;SDS011;6866;50.778;7.206;2022-07-29T18:29:26;9.70;;;2.70;;
13590;SDS011;6866;50.778;7.206;2022-07-29T18:31:52;6.45;;;2.42;;
13590;SDS011;6866;50.778;7.206;2022-07-29T18:34:18;8.30;;;2.73;;
13590;SDS011;6866;50.778;7.206;2022-07-29T18:36:44;7.40;;;2.63;;
13590;SDS011;6866;50.778;7.206;2022-07-29T18:39:09;7.78;;;2.50;;
13590;SDS011;6866;50.778;7.206;2022-07-29T18:41:35;6.97;;;2.50;;
13590;SDS011;6866;50.778;7.206;2022-07-29T18:44:02;8.02;;;3.00;;
13590;SDS011;6866;50.778;7.206;2022-07-29T18:46:28;6.82;;;2.55;;
13590;SDS011;6866;50.778;7.206;2022-07-29T18:48:54;6.20;;;2.63;;
13590;SDS011;6866;50.778;7.206;2022-07-29T18:51:21;7.07;;;2.65;;
13590;SDS011;6866;50.778;7.206;2022-07-29T18:53:46;6.97;;;2.60;;
13590;SDS011;6866;50.778;7.206;2022-07-29T18:56:12;7.10;;;2.58;;
13590;SDS011;6866;50.778;7.206;2022-07-29T18:58:37;6.67;;;2.53;;
13590;SDS011;6866;50.778;7.206;2022-07-29T19:01:03;8.02;;;3.15;;
13590;SDS011;6866;50.778;7.206;2022-07-29T19:03:29;7.47;;;2.83;;
13590;SDS011;6866;50.778;7.206;2022-07-29T19:05:55;8.00;;;2.90;;
13590;SDS011;6866;50.778;7.206;2022-07-29T19:08:20;6.95;;;2.50;;
13590;SDS011;6866;50.778;7.206;2022-07-29T19:10:46;9.47;;;3.07;;
13590;SDS011;6866;50.778;7.206;2022-07-29T19:13:12;8.35;;;2.70;;
13590;SDS011;6866;50.778;7.206;2022-07-29T19:15:38;8.52;;;2.80;;
13590;SDS011;6866;50.778;7.206;2022-07-29T19:22:55;8.70;;;2.50;;
13590;SDS011;6866;50.778;7.206;2022-07-29T19:35:03;7.32;;;2.85;;
13590;SDS011;6866;50.778;7.206;2022-07-29T19:37:48;8.98;;;2.97;;